createdAt,value
2023-05-16T00:04:00.570Z,3.67
2023-05-16T00:14:04.105Z,4.30
2023-05-16T00:24:09.217Z,4.00
2023-05-16T00:34:12.436Z,3.83
2023-05-16T00:44:17.123Z,3.97
2023-05-16T00:54:22.966Z,4.00
2023-05-16T01:04:29.243Z,4.00
2023-05-16T01:14:50.204Z,3.72
2023-05-16T01:25:06.234Z,4.00
2023-05-16T01:35:13.117Z,4.30
2023-05-16T01:45:25.182Z,4.60
2023-05-16T01:55:37.931Z,3.90
2023-05-16T02:05:41.147Z,4.18
2023-05-16T02:15:48.408Z,3.95
2023-05-16T02:25:51.638Z,4.30
2023-05-16T02:35:56.502Z,4.30
2023-05-16T02:46:03.565Z,4.30
2023-05-16T02:56:08.902Z,4.80
2023-05-16T03:06:12.422Z,4.20
2023-05-16T03:16:17.582Z,4.60
2023-05-16T03:26:21.387Z,5.35
2023-05-16T03:36:28.663Z,7.35
2023-05-16T03:46:31.985Z,9.00
2023-05-16T03:56:36.489Z,9.20
2023-05-16T04:06:39.733Z,8.48
2023-05-16T04:16:44.390Z,8.02
2023-05-16T04:26:47.572Z,7.53
2023-05-16T04:36:52.098Z,7.95
2023-05-16T04:46:55.400Z,7.03
2023-05-16T04:57:00.130Z,7.40
2023-05-16T05:07:03.379Z,7.47
2023-05-16T05:17:08.083Z,8.00
2023-05-16T05:27:11.286Z,7.25
2023-05-16T05:37:15.988Z,6.03
2023-05-16T05:47:19.455Z,7.35
2023-05-16T05:57:23.971Z,7.05
2023-05-16T06:07:27.203Z,6.25
2023-05-16T06:17:31.784Z,7.30
2023-05-16T06:27:35.119Z,7.40
2023-05-16T06:37:41.343Z,7.13
2023-05-16T06:47:46.270Z,8.00
2023-05-16T06:57:50.957Z,8.70
2023-05-16T07:07:54.175Z,8.68
2023-05-16T07:17:58.896Z,8.80
2023-05-16T07:28:04.490Z,9.43
2023-05-16T07:38:09.164Z,10.80
2023-05-16T07:48:12.433Z,10.93
2023-05-16T07:58:17.072Z,11.65
2023-05-16T08:08:20.416Z,11.52
2023-05-16T08:18:25.128Z,10.20
2023-05-16T08:28:28.362Z,9.30
2023-05-16T08:38:33.078Z,6.30
2023-05-16T08:48:37.800Z,4.00
2023-05-16T08:58:42.882Z,3.40
2023-05-16T09:08:46.808Z,3.47
2023-05-16T09:18:58.224Z,3.90
2023-05-16T09:29:02.291Z,3.85
2023-05-16T09:39:07.941Z,3.88
2023-05-16T09:49:13.737Z,4.20
2023-05-16T09:59:18.410Z,3.83
2023-05-16T10:09:23.447Z,3.88
2023-05-16T10:19:30.660Z,4.53
2023-05-16T10:29:46.562Z,5.22
2023-05-16T10:40:00.738Z,5.53
2023-05-16T10:50:04.326Z,6.47
2023-05-16T11:00:22.917Z,6.35
2023-05-16T11:10:26.129Z,6.70
2023-05-16T11:20:32.843Z,6.10
2023-05-16T11:30:36.005Z,6.88
2023-05-16T11:40:44.291Z,6.30
2023-05-16T11:50:47.969Z,6.15
2023-05-16T12:00:53.023Z,6.28
2023-05-16T12:10:57.195Z,6.70
2023-05-16T12:21:01.982Z,6.60
2023-05-16T12:31:05.762Z,7.05
2023-05-16T12:41:11.279Z,7.15
2023-05-16T12:51:15.810Z,8.63
2023-05-16T13:01:20.518Z,9.30
2023-05-16T13:11:23.680Z,9.20
2023-05-16T13:21:30.206Z,8.63
2023-05-16T13:31:33.483Z,8.32
2023-05-16T13:41:40.375Z,8.68
2023-05-16T13:51:43.901Z,7.57
2023-05-16T14:01:48.524Z,9.60
2023-05-16T14:11:51.895Z,8.27
2023-05-16T14:21:56.617Z,7.15
2023-05-16T14:31:59.843Z,6.40
2023-05-16T14:42:06.823Z,5.93
2023-05-16T14:52:11.605Z,5.38
2023-05-16T15:02:16.466Z,4.88
2023-05-16T15:12:19.822Z,4.97
2023-05-16T15:22:24.374Z,5.43
2023-05-16T15:32:27.943Z,5.67
2023-05-16T15:42:32.608Z,6.73
2023-05-16T15:52:36.906Z,6.23
2023-05-16T16:02:44.767Z,5.37
2023-05-16T16:13:00.249Z,4.70
2023-05-16T16:23:04.804Z,3.90
2023-05-16T16:33:08.587Z,3.20
2023-05-16T16:43:13.201Z,3.70
2023-05-16T16:53:16.398Z,4.53
2023-05-16T17:03:21.543Z,4.73
2023-05-16T17:13:24.914Z,4.40
2023-05-16T17:23:29.561Z,4.90
2023-05-16T17:33:32.955Z,5.37
2023-05-16T17:43:37.500Z,5.20
2023-05-16T17:53:40.856Z,5.40
2023-05-16T18:03:45.601Z,6.37
2023-05-16T18:13:48.883Z,5.73
2023-05-16T18:23:54.685Z,5.33
2023-05-16T18:33:58.847Z,5.97
2023-05-16T18:44:03.368Z,6.87
2023-05-16T18:54:06.806Z,7.03
2023-05-16T19:04:11.751Z,6.93
2023-05-16T19:14:15.083Z,6.80
2023-05-16T19:24:19.783Z,7.37
2023-05-16T19:34:22.976Z,7.30
2023-05-16T19:44:27.659Z,10.63
2023-05-16T19:54:31.323Z,7.27
2023-05-16T20:04:36.008Z,8.03
2023-05-16T20:14:39.251Z,8.13
2023-05-16T20:24:43.886Z,8.40
2023-05-16T20:34:47.316Z,7.40
2023-05-16T20:44:51.914Z,8.03
2023-05-16T20:54:55.136Z,7.60
2023-05-16T21:05:10.016Z,7.47
2023-05-16T21:15:25.367Z,8.23
2023-05-16T21:25:33.438Z,7.13
2023-05-16T21:35:36.777Z,7.30
2023-05-16T21:45:41.346Z,7.70
2023-05-16T21:55:44.807Z,5.87
2023-05-16T22:05:49.356Z,5.40
2023-05-16T22:16:04.025Z,5.37
2023-05-16T22:26:09.413Z,5.00
2023-05-16T22:36:12.597Z,4.57
2023-05-16T22:46:17.189Z,3.53
2023-05-16T22:56:20.410Z,2.90
2023-05-16T23:06:25.092Z,2.57
2023-05-16T23:16:28.353Z,2.70
2023-05-16T23:26:32.962Z,2.47
2023-05-16T23:36:36.237Z,2.67
2023-05-16T23:46:40.867Z,2.30
2023-05-16T23:56:44.100Z,1.70
